sensor_id;sensor_type;location;lat;lon;timestamp;P1;durP1;ratioP1;P2;durP2;ratioP2
15049;SDS011;7622;42.724;23.250;2023-08-17T00:00:47;9.80;;;6.80;;
15049;SDS011;7622;42.724;23.250;2023-08-17T00:03:14;10.77;;;6.33;;
15049;SDS011;7622;42.724;23.250;2023-08-17T00:05:41;8.10;;;7.20;;
15049;SDS011;7622;42.724;23.250;2023-08-17T00:08:07;7.10;;;6.40;;
15049;SDS011;7622;42.724;23.250;2023-08-17T00:10:34;10.67;;;6.80;;
15049;SDS011;7622;42.724;23.250;2023-08-17T00:13:03;9.00;;;6.40;;
15049;SDS011;7622;42.724;23.250;2023-08-17T00:15:32;9.63;;;6.57;;
15049;SDS011;7622;42.724;23.250;2023-08-17T00:17:59;8.40;;;6.47;;
15049;SDS011;7622;42.724;23.250;2023-08-17T00:20:25;7.50;;;6.20;;
15049;SDS011;7622;42.724;23.250;2023-08-17T00:22:52;7.00;;;5.87;;
15049;SDS011;7622;42.724;23.250;2023-08-17T00:25:19;14.33;;;6.23;;
15049;SDS011;7622;42.724;23.250;2023-08-17T00:27:45;6.93;;;5.80;;
15049;SDS011;7622;42.724;23.250;2023-08-17T00:30:13;6.77;;;5.93;;
15049;SDS011;7622;42.724;23.250;2023-08-17T00:32:41;6.53;;;5.93;;
15049;SDS011;7622;42.724;23.250;2023-08-17T00:35:08;6.07;;;5.47;;
15049;SDS011;7622;42.724;23.250;2023-08-17T00:37:34;6.70;;;5.70;;
15049;SDS011;7622;42.724;23.250;2023-08-17T00:40:01;5.93;;;5.40;;
15049;SDS011;7622;42.724;23.250;2023-08-17T00:42:29;7.17;;;5.63;;
15049;SDS011;7622;42.724;23.250;2023-08-17T00:44:56;5.93;;;5.43;;
15049;SDS011;7622;42.724;23.250;2023-08-17T00:47:23;12.60;;;5.87;;
15049;SDS011;7622;42.724;23.250;2023-08-17T00:49:52;8.80;;;5.40;;
15049;SDS011;7622;42.724;23.250;2023-08-17T00:52:19;10.27;;;5.50;;
15049;SDS011;7622;42.724;23.250;2023-08-17T00:54:46;7.33;;;5.20;;
15049;SDS011;7622;42.724;23.250;2023-08-17T00:57:13;5.70;;;5.03;;
15049;SDS011;7622;42.724;23.250;2023-08-17T00:59:40;8.20;;;5.43;;
15049;SDS011;7622;42.724;23.250;2023-08-17T01:02:07;7.60;;;5.77;;
15049;SDS011;7622;42.724;23.250;2023-08-17T01:04:35;8.00;;;5.40;;
15049;SDS011;7622;42.724;23.250;2023-08-17T01:07:03;5.50;;;5.00;;
15049;SDS011;7622;42.724;23.250;2023-08-17T01:09:30;5.67;;;5.17;;
15049;SDS011;7622;42.724;23.250;2023-08-17T01:11:58;12.97;;;5.87;;
15049;SDS011;7622;42.724;23.250;2023-08-17T01:14:31;9.57;;;5.90;;
15049;SDS011;7622;42.724;23.250;2023-08-17T01:17:03;10.63;;;5.20;;
15049;SDS011;7622;42.724;23.250;2023-08-17T01:19:36;8.00;;;4.97;;
15049;SDS011;7622;42.724;23.250;2023-08-17T01:22:05;6.10;;;5.60;;
15049;SDS011;7622;42.724;23.250;2023-08-17T01:24:38;5.73;;;5.17;;
15049;SDS011;7622;42.724;23.250;2023-08-17T01:27:05;8.47;;;5.53;;
15049;SDS011;7622;42.724;23.250;2023-08-17T01:29:32;6.80;;;5.77;;
15049;SDS011;7622;42.724;23.250;2023-08-17T01:32:00;6.07;;;5.53;;
15049;SDS011;7622;42.724;23.250;2023-08-17T01:34:49;5.63;;;5.13;;
15049;SDS011;7622;42.724;23.250;2023-08-17T01:37:23;6.03;;;5.50;;
15049;SDS011;7622;42.724;23.250;2023-08-17T01:39:55;6.50;;;5.50;;
15049;SDS011;7622;42.724;23.250;2023-08-17T01:42:24;11.17;;;5.10;;
15049;SDS011;7622;42.724;23.250;2023-08-17T01:44:51;6.23;;;5.63;;
15049;SDS011;7622;42.724;23.250;2023-08-17T01:47:20;6.07;;;5.47;;
15049;SDS011;7622;42.724;23.250;2023-08-17T01:49:47;8.67;;;6.07;;
15049;SDS011;7622;42.724;23.250;2023-08-17T01:52:14;7.60;;;5.67;;
15049;SDS011;7622;42.724;23.250;2023-08-17T01:54:41;6.80;;;5.70;;
15049;SDS011;7622;42.724;23.250;2023-08-17T01:57:09;5.90;;;4.80;;
15049;SDS011;7622;42.724;23.250;2023-08-17T01:59:36;8.33;;;5.40;;
15049;SDS011;7622;42.724;23.250;2023-08-17T02:02:02;5.63;;;5.00;;
15049;SDS011;7622;42.724;23.250;2023-08-17T02:04:29;8.67;;;5.63;;
15049;SDS011;7622;42.724;23.250;2023-08-17T02:06:56;7.53;;;5.20;;
15049;SDS011;7622;42.724;23.250;2023-08-17T02:09:22;7.27;;;4.90;;
15049;SDS011;7622;42.724;23.250;2023-08-17T02:11:49;7.03;;;5.83;;
15049;SDS011;7622;42.724;23.250;2023-08-17T02:14:17;5.93;;;4.47;;
15049;SDS011;7622;42.724;23.250;2023-08-17T02:16:44;7.57;;;5.37;;
15049;SDS011;7622;42.724;23.250;2023-08-17T02:19:11;6.30;;;5.17;;
15049;SDS011;7622;42.724;23.250;2023-08-17T02:21:37;6.73;;;5.40;;
15049;SDS011;7622;42.724;23.250;2023-08-17T02:24:05;7.50;;;5.27;;
15049;SDS011;7622;42.724;23.250;2023-08-17T02:26:32;6.00;;;5.33;;
15049;SDS011;7622;42.724;23.250;2023-08-17T02:28:59;7.30;;;5.23;;
15049;SDS011;7622;42.724;23.250;2023-08-17T02:31:27;7.67;;;5.37;;
15049;SDS011;7622;42.724;23.250;2023-08-17T02:33:53;5.73;;;5.20;;
15049;SDS011;7622;42.724;23.250;2023-08-17T02:36:25;5.73;;;4.67;;
15049;SDS011;7622;42.724;23.250;2023-08-17T02:38:52;10.13;;;5.00;;
15049;SDS011;7622;42.724;23.250;2023-08-17T02:41:19;5.23;;;4.73;;
15049;SDS011;7622;42.724;23.250;2023-08-17T02:43:46;6.40;;;5.27;;
15049;SDS011;7622;42.724;23.250;2023-08-17T02:46:12;7.87;;;5.00;;
15049;SDS011;7622;42.724;23.250;2023-08-17T02:48:41;8.77;;;5.33;;
15049;SDS011;7622;42.724;23.250;2023-08-17T02:51:08;7.33;;;5.20;;
15049;SDS011;7622;42.724;23.250;2023-08-17T02:53:35;6.20;;;5.63;;
15049;SDS011;7622;42.724;23.250;2023-08-17T02:56:02;8.23;;;5.67;;
15049;SDS011;7622;42.724;23.250;2023-08-17T02:58:28;8.80;;;5.37;;
15049;SDS011;7622;42.724;23.250;2023-08-17T03:00:55;10.70;;;6.27;;
15049;SDS011;7622;42.724;23.250;2023-08-17T03:03:22;8.13;;;5.27;;
15049;SDS011;7622;42.724;23.250;2023-08-17T03:05:50;9.03;;;5.40;;
15049;SDS011;7622;42.724;23.250;2023-08-17T03:08:17;6.50;;;5.37;;
15049;SDS011;7622;42.724;23.250;2023-08-17T03:10:43;7.57;;;4.63;;
15049;SDS011;7622;42.724;23.250;2023-08-17T03:13:10;7.67;;;4.90;;
15049;SDS011;7622;42.724;23.250;2023-08-17T03:15:37;6.30;;;5.50;;
15049;SDS011;7622;42.724;23.250;2023-08-17T03:18:05;5.67;;;5.17;;
15049;SDS011;7622;42.724;23.250;2023-08-17T03:20:32;14.40;;;4.77;;
15049;SDS011;7622;42.724;23.250;2023-08-17T03:23:00;8.30;;;5.47;;
15049;SDS011;7622;42.724;23.250;2023-08-17T03:25:27;5.70;;;4.83;;
15049;SDS011;7622;42.724;23.250;2023-08-17T03:27:54;7.40;;;4.97;;
15049;SDS011;7622;42.724;23.250;2023-08-17T03:30:20;8.80;;;5.40;;
15049;SDS011;7622;42.724;23.250;2023-08-17T03:32:47;7.37;;;5.10;;
15049;SDS011;7622;42.724;23.250;2023-08-17T03:35:14;5.73;;;5.10;;
15049;SDS011;7622;42.724;23.250;2023-08-17T03:37:41;7.23;;;5.53;;
15049;SDS011;7622;42.724;23.250;2023-08-17T03:40:08;9.03;;;5.40;;
15049;SDS011;7622;42.724;23.250;2023-08-17T03:42:35;7.30;;;5.43;;
15049;SDS011;7622;42.724;23.250;2023-08-17T03:45:02;8.93;;;5.53;;
15049;SDS011;7622;42.724;23.250;2023-08-17T03:47:29;8.83;;;5.77;;
15049;SDS011;7622;42.724;23.250;2023-08-17T03:49:56;5.50;;;5.17;;
15049;SDS011;7622;42.724;23.250;2023-08-17T03:52:23;6.43;;;5.37;;
15049;SDS011;7622;42.724;23.250;2023-08-17T03:54:49;8.67;;;5.47;;
15049;SDS011;7622;42.724;23.250;2023-08-17T03:57:18;9.00;;;5.70;;
15049;SDS011;7622;42.724;23.250;2023-08-17T03:59:44;9.73;;;6.00;;
15049;SDS011;7622;42.724;23.250;2023-08-17T04:02:11;9.87;;;5.60;;
15049;SDS011;7622;42.724;23.250;2023-08-17T04:04:38;7.00;;;6.33;;
15049;SDS011;7622;42.724;23.250;2023-08-17T04:07:04;16.97;;;7.07;;
15049;SDS011;7622;42.724;23.250;2023-08-17T04:09:32;15.80;;;7.50;;
15049;SDS011;7622;42.724;23.250;2023-08-17T04:11:59;8.90;;;7.10;;
15049;SDS011;7622;42.724;23.250;2023-08-17T04:14:27;9.90;;;7.00;;
15049;SDS011;7622;42.724;23.250;2023-08-17T04:16:54;10.73;;;6.83;;
15049;SDS011;7622;42.724;23.250;2023-08-17T04:19:21;12.27;;;7.63;;
15049;SDS011;7622;42.724;23.250;2023-08-17T04:21:48;12.47;;;7.10;;
15049;SDS011;7622;42.724;23.250;2023-08-17T04:24:15;12.17;;;6.53;;
15049;SDS011;7622;42.724;23.250;2023-08-17T04:26:41;8.37;;;7.20;;
15049;SDS011;7622;42.724;23.250;2023-08-17T04:29:08;6.97;;;5.77;;
15049;SDS011;7622;42.724;23.250;2023-08-17T04:31:36;6.83;;;6.23;;
15049;SDS011;7622;42.724;23.250;2023-08-17T04:34:03;8.50;;;6.33;;
15049;SDS011;7622;42.724;23.250;2023-08-17T04:36:30;13.07;;;6.20;;
15049;SDS011;7622;42.724;23.250;2023-08-17T04:38:57;8.00;;;5.70;;
15049;SDS011;7622;42.724;23.250;2023-08-17T04:41:24;10.63;;;6.30;;
15049;SDS011;7622;42.724;23.250;2023-08-17T04:43:51;7.13;;;6.10;;
15049;SDS011;7622;42.724;23.250;2023-08-17T04:46:18;17.67;;;6.80;;
15049;SDS011;7622;42.724;23.250;2023-08-17T04:48:46;9.90;;;6.30;;
15049;SDS011;7622;42.724;23.250;2023-08-17T04:51:13;10.10;;;6.23;;
15049;SDS011;7622;42.724;23.250;2023-08-17T04:53:40;7.47;;;6.23;;
15049;SDS011;7622;42.724;23.250;2023-08-17T04:56:07;19.07;;;6.63;;
15049;SDS011;7622;42.724;23.250;2023-08-17T04:58:34;7.30;;;6.17;;
15049;SDS011;7622;42.724;23.250;2023-08-17T05:01:00;19.13;;;6.13;;
15049;SDS011;7622;42.724;23.250;2023-08-17T05:03:27;8.93;;;6.37;;
15049;SDS011;7622;42.724;23.250;2023-08-17T05:05:55;9.33;;;5.77;;
15049;SDS011;7622;42.724;23.250;2023-08-17T05:08:22;8.90;;;5.47;;
15049;SDS011;7622;42.724;23.250;2023-08-17T05:10:49;12.17;;;5.70;;
15049;SDS011;7622;42.724;23.250;2023-08-17T05:13:16;37.53;;;6.73;;
15049;SDS011;7622;42.724;23.250;2023-08-17T05:15:42;8.73;;;4.83;;
15049;SDS011;7622;42.724;23.250;2023-08-17T05:18:09;7.33;;;4.40;;
15049;SDS011;7622;42.724;23.250;2023-08-17T05:20:36;10.00;;;4.53;;
15049;SDS011;7622;42.724;23.250;2023-08-17T05:23:04;5.60;;;4.40;;
15049;SDS011;7622;42.724;23.250;2023-08-17T05:25:31;7.43;;;4.67;;
15049;SDS011;7622;42.724;23.250;2023-08-17T05:27:58;5.90;;;4.60;;
15049;SDS011;7622;42.724;23.250;2023-08-17T05:30:25;5.97;;;5.30;;
15049;SDS011;7622;42.724;23.250;2023-08-17T05:32:51;11.07;;;7.23;;
15049;SDS011;7622;42.724;23.250;2023-08-17T05:35:18;13.30;;;7.23;;
15049;SDS011;7622;42.724;23.250;2023-08-17T05:37:45;7.13;;;6.07;;
15049;SDS011;7622;42.724;23.250;2023-08-17T05:40:13;12.30;;;6.23;;
15049;SDS011;7622;42.724;23.250;2023-08-17T05:42:40;7.83;;;5.30;;
15049;SDS011;7622;42.724;23.250;2023-08-17T05:45:07;7.40;;;5.20;;
15049;SDS011;7622;42.724;23.250;2023-08-17T05:47:34;8.70;;;6.00;;
15049;SDS011;7622;42.724;23.250;2023-08-17T05:50:01;7.15;;;5.53;;
15049;SDS011;7622;42.724;23.250;2023-08-17T05:52:28;6.03;;;5.43;;
15049;SDS011;7622;42.724;23.250;2023-08-17T05:54:55;6.93;;;6.20;;
15049;SDS011;7622;42.724;23.250;2023-08-17T05:57:23;6.50;;;6.00;;
15049;SDS011;7622;42.724;23.250;2023-08-17T05:59:50;7.28;;;6.07;;
15049;SDS011;7622;42.724;23.250;2023-08-17T06:02:16;8.10;;;7.30;;
15049;SDS011;7622;42.724;23.250;2023-08-17T06:04:43;16.10;;;8.20;;
15049;SDS011;7622;42.724;23.250;2023-08-17T06:07:10;9.05;;;6.45;;
15049;SDS011;7622;42.724;23.250;2023-08-17T06:09:37;7.97;;;6.70;;
15049;SDS011;7622;42.724;23.250;2023-08-17T06:12:04;11.85;;;7.82;;
15049;SDS011;7622;42.724;23.250;2023-08-17T06:14:32;7.55;;;6.80;;
15049;SDS011;7622;42.724;23.250;2023-08-17T06:16:59;10.02;;;7.25;;
15049;SDS011;7622;42.724;23.250;2023-08-17T06:19:26;8.68;;;7.97;;
15049;SDS011;7622;42.724;23.250;2023-08-17T06:21:53;9.82;;;6.78;;
15049;SDS011;7622;42.724;23.250;2023-08-17T06:24:19;8.38;;;7.32;;
15049;SDS011;7622;42.724;23.250;2023-08-17T06:26:46;12.75;;;6.80;;
15049;SDS011;7622;42.724;23.250;2023-08-17T06:29:13;11.00;;;6.70;;
15049;SDS011;7622;42.724;23.250;2023-08-17T06:31:41;7.45;;;6.75;;
15049;SDS011;7622;42.724;23.250;2023-08-17T06:34:08;10.52;;;6.68;;
15049;SDS011;7622;42.724;23.250;2023-08-17T06:36:37;14.02;;;7.20;;
15049;SDS011;7622;42.724;23.250;2023-08-17T06:39:04;6.82;;;6.20;;
15049;SDS011;7622;42.724;23.250;2023-08-17T06:41:31;11.98;;;7.18;;
15049;SDS011;7622;42.724;23.250;2023-08-17T06:43:57;10.40;;;6.13;;
15049;SDS011;7622;42.724;23.250;2023-08-17T06:46:24;9.23;;;6.97;;
15049;SDS011;7622;42.724;23.250;2023-08-17T06:48:54;6.68;;;6.25;;
15049;SDS011;7622;42.724;23.250;2023-08-17T06:51:21;12.93;;;5.93;;
15049;SDS011;7622;42.724;23.250;2023-08-17T06:53:47;6.55;;;6.00;;
15049;SDS011;7622;42.724;23.250;2023-08-17T06:56:14;7.18;;;6.45;;
15049;SDS011;7622;42.724;23.250;2023-08-17T06:58:41;7.20;;;5.80;;
15049;SDS011;7622;42.724;23.250;2023-08-17T07:01:08;7.53;;;6.63;;
15049;SDS011;7622;42.724;23.250;2023-08-17T07:03:34;8.93;;;6.13;;
15049;SDS011;7622;42.724;23.250;2023-08-17T07:06:03;6.65;;;6.10;;
15049;SDS011;7622;42.724;23.250;2023-08-17T07:08:29;10.32;;;6.28;;
15049;SDS011;7622;42.724;23.250;2023-08-17T07:10:56;8.77;;;5.95;;
15049;SDS011;7622;42.724;23.250;2023-08-17T07:13:23;6.57;;;5.88;;
15049;SDS011;7622;42.724;23.250;2023-08-17T07:15:50;7.75;;;5.90;;
15049;SDS011;7622;42.724;23.250;2023-08-17T07:18:17;5.85;;;5.30;;
15049;SDS011;7622;42.724;23.250;2023-08-17T07:20:43;9.35;;;5.20;;
15049;SDS011;7622;42.724;23.250;2023-08-17T07:23:12;11.15;;;5.88;;
15049;SDS011;7622;42.724;23.250;2023-08-17T07:25:38;16.95;;;6.00;;
15049;SDS011;7622;42.724;23.250;2023-08-17T07:28:05;10.82;;;5.43;;
15049;SDS011;7622;42.724;23.250;2023-08-17T07:30:32;6.97;;;3.92;;
15049;SDS011;7622;42.724;23.250;2023-08-17T07:32:59;5.68;;;4.03;;
15049;SDS011;7622;42.724;23.250;2023-08-17T07:35:26;4.30;;;4.00;;
15049;SDS011;7622;42.724;23.250;2023-08-17T07:37:52;8.20;;;4.90;;
15049;SDS011;7622;42.724;23.250;2023-08-17T07:40:20;7.80;;;5.50;;
15049;SDS011;7622;42.724;23.250;2023-08-17T07:42:47;9.25;;;5.50;;
15049;SDS011;7622;42.724;23.250;2023-08-17T07:45:14;6.15;;;5.53;;
15049;SDS011;7622;42.724;23.250;2023-08-17T07:47:41;6.38;;;5.20;;
15049;SDS011;7622;42.724;23.250;2023-08-17T07:50:08;7.05;;;5.43;;
15049;SDS011;7622;42.724;23.250;2023-08-17T07:52:35;6.07;;;5.50;;
15049;SDS011;7622;42.724;23.250;2023-08-17T07:55:02;13.82;;;5.70;;
15049;SDS011;7622;42.724;23.250;2023-08-17T07:57:30;5.60;;;5.10;;
15049;SDS011;7622;42.724;23.250;2023-08-17T07:59:57;7.28;;;5.65;;
15049;SDS011;7622;42.724;23.250;2023-08-17T08:02:24;8.82;;;5.88;;
15049;SDS011;7622;42.724;23.250;2023-08-17T08:04:51;7.18;;;6.00;;
15049;SDS011;7622;42.724;23.250;2023-08-17T08:07:17;7.80;;;5.13;;
15049;SDS011;7622;42.724;23.250;2023-08-17T08:09:44;10.95;;;5.40;;
15049;SDS011;7622;42.724;23.250;2023-08-17T08:12:11;11.73;;;5.07;;
15049;SDS011;7622;42.724;23.250;2023-08-17T08:14:39;6.78;;;4.15;;
15049;SDS011;7622;42.724;23.250;2023-08-17T08:17:06;5.93;;;4.78;;
15049;SDS011;7622;42.724;23.250;2023-08-17T08:19:33;6.38;;;4.88;;
15049;SDS011;7622;42.724;23.250;2023-08-17T08:21:59;11.23;;;4.80;;
15049;SDS011;7622;42.724;23.250;2023-08-17T08:24:27;5.43;;;3.55;;
15049;SDS011;7622;42.724;23.250;2023-08-17T08:26:59;4.75;;;3.45;;
15049;SDS011;7622;42.724;23.250;2023-08-17T08:29:25;10.68;;;3.42;;
15049;SDS011;7622;42.724;23.250;2023-08-17T08:31:54;3.78;;;2.80;;
15049;SDS011;7622;42.724;23.250;2023-08-17T08:34:22;4.03;;;3.22;;
15049;SDS011;7622;42.724;23.250;2023-08-17T08:36:49;4.18;;;3.47;;
15049;SDS011;7622;42.724;23.250;2023-08-17T08:39:16;3.90;;;3.58;;
15049;SDS011;7622;42.724;23.250;2023-08-17T08:41:43;3.65;;;3.35;;
15049;SDS011;7622;42.724;23.250;2023-08-17T08:44:09;7.68;;;3.50;;
15049;SDS011;7622;42.724;23.250;2023-08-17T08:46:36;3.85;;;3.22;;
15049;SDS011;7622;42.724;23.250;2023-08-17T08:49:08;4.22;;;3.42;;
15049;SDS011;7622;42.724;23.250;2023-08-17T08:51:37;3.97;;;3.30;;
15049;SDS011;7622;42.724;23.250;2023-08-17T08:54:08;6.03;;;3.17;;
15049;SDS011;7622;42.724;23.250;2023-08-17T08:56:39;6.63;;;3.30;;
15049;SDS011;7622;42.724;23.250;2023-08-17T08:59:09;3.60;;;2.97;;
15049;SDS011;7622;42.724;23.250;2023-08-17T09:01:37;3.72;;;3.08;;
15049;SDS011;7622;42.724;23.250;2023-08-17T09:04:05;9.10;;;3.50;;
15049;SDS011;7622;42.724;23.250;2023-08-17T09:06:33;9.95;;;3.55;;
15049;SDS011;7622;42.724;23.250;2023-08-17T09:09:01;5.20;;;3.10;;
15049;SDS011;7622;42.724;23.250;2023-08-17T09:11:28;4.50;;;2.88;;
15049;SDS011;7622;42.724;23.250;2023-08-17T09:13:56;3.53;;;3.33;;
15049;SDS011;7622;42.724;23.250;2023-08-17T09:16:23;5.10;;;3.92;;
15049;SDS011;7622;42.724;23.250;2023-08-17T09:18:50;4.53;;;3.55;;
15049;SDS011;7622;42.724;23.250;2023-08-17T09:21:22;4.68;;;3.65;;
15049;SDS011;7622;42.724;23.250;2023-08-17T09:23:54;3.83;;;3.42;;
15049;SDS011;7622;42.724;23.250;2023-08-17T09:26:22;6.30;;;3.20;;
15049;SDS011;7622;42.724;23.250;2023-08-17T09:28:49;5.22;;;3.38;;
15049;SDS011;7622;42.724;23.250;2023-08-17T09:31:19;3.70;;;2.63;;
15049;SDS011;7622;42.724;23.250;2023-08-17T09:33:48;3.70;;;3.35;;
15049;SDS011;7622;42.724;23.250;2023-08-17T09:36:19;3.13;;;2.83;;
15049;SDS011;7622;42.724;23.250;2023-08-17T09:38:47;4.20;;;2.80;;
15049;SDS011;7622;42.724;23.250;2023-08-17T09:41:16;5.03;;;2.97;;
15049;SDS011;7622;42.724;23.250;2023-08-17T09:43:43;3.13;;;2.92;;
15049;SDS011;7622;42.724;23.250;2023-08-17T09:46:10;3.67;;;3.03;;
15049;SDS011;7622;42.724;23.250;2023-08-17T09:48:37;7.03;;;3.15;;
15049;SDS011;7622;42.724;23.250;2023-08-17T09:51:04;6.07;;;2.97;;
15049;SDS011;7622;42.724;23.250;2023-08-17T09:53:34;4.07;;;3.00;;
15049;SDS011;7622;42.724;23.250;2023-08-17T09:56:02;7.97;;;3.25;;
15049;SDS011;7622;42.724;23.250;2023-08-17T09:58:31;3.40;;;2.95;;
15049;SDS011;7622;42.724;23.250;2023-08-17T10:00:58;3.70;;;3.08;;
15049;SDS011;7622;42.724;23.250;2023-08-17T10:03:29;3.13;;;2.92;;
15049;SDS011;7622;42.724;23.250;2023-08-17T10:06:01;3.15;;;2.90;;
15049;SDS011;7622;42.724;23.250;2023-08-17T10:08:31;6.68;;;3.10;;
15049;SDS011;7622;42.724;23.250;2023-08-17T10:11:02;3.58;;;2.85;;
15049;SDS011;7622;42.724;23.250;2023-08-17T10:13:35;9.45;;;3.42;;
15049;SDS011;7622;42.724;23.250;2023-08-17T10:16:11;3.20;;;2.63;;
15049;SDS011;7622;42.724;23.250;2023-08-17T10:18:45;3.97;;;2.70;;
15049;SDS011;7622;42.724;23.250;2023-08-17T10:21:21;3.60;;;2.70;;
15049;SDS011;7622;42.724;23.250;2023-08-17T10:23:53;3.53;;;2.30;;
15049;SDS011;7622;42.724;23.250;2023-08-17T10:26:22;2.97;;;2.70;;
15049;SDS011;7622;42.724;23.250;2023-08-17T10:28:51;4.95;;;2.70;;
15049;SDS011;7622;42.724;23.250;2023-08-17T10:31:19;8.50;;;3.20;;
15049;SDS011;7622;42.724;23.250;2023-08-17T10:33:46;14.07;;;3.40;;
15049;SDS011;7622;42.724;23.250;2023-08-17T10:36:14;3.25;;;3.00;;
15049;SDS011;7622;42.724;23.250;2023-08-17T10:38:42;5.07;;;2.92;;
15049;SDS011;7622;42.724;23.250;2023-08-17T10:41:09;3.92;;;2.60;;
15049;SDS011;7622;42.724;23.250;2023-08-17T10:43:54;3.17;;;2.88;;
15049;SDS011;7622;42.724;23.250;2023-08-17T10:46:21;3.60;;;2.85;;
15049;SDS011;7622;42.724;23.250;2023-08-17T10:49:00;4.80;;;2.60;;
15049;SDS011;7622;42.724;23.250;2023-08-17T10:51:29;5.40;;;2.70;;
15049;SDS011;7622;42.724;23.250;2023-08-17T10:53:56;4.15;;;3.22;;
15049;SDS011;7622;42.724;23.250;2023-08-17T10:56:26;4.72;;;3.00;;
15049;SDS011;7622;42.724;23.250;2023-08-17T10:58:55;3.85;;;2.92;;
15049;SDS011;7622;42.724;23.250;2023-08-17T11:01:32;3.30;;;3.00;;
15049;SDS011;7622;42.724;23.250;2023-08-17T11:04:09;4.20;;;2.80;;
15049;SDS011;7622;42.724;23.250;2023-08-17T11:06:37;7.82;;;3.08;;
15049;SDS011;7622;42.724;23.250;2023-08-17T11:09:06;6.80;;;3.10;;
15049;SDS011;7622;42.724;23.250;2023-08-17T11:11:34;5.45;;;3.47;;
15049;SDS011;7622;42.724;23.250;2023-08-17T11:14:02;6.55;;;3.47;;
15049;SDS011;7622;42.724;23.250;2023-08-17T11:16:29;4.55;;;3.40;;
15049;SDS011;7622;42.724;23.250;2023-08-17T11:18:56;4.78;;;3.50;;
15049;SDS011;7622;42.724;23.250;2023-08-17T11:21:25;3.72;;;3.53;;
15049;SDS011;7622;42.724;23.250;2023-08-17T11:23:54;4.10;;;3.80;;
15049;SDS011;7622;42.724;23.250;2023-08-17T11:26:22;9.00;;;4.38;;
15049;SDS011;7622;42.724;23.250;2023-08-17T11:28:50;4.40;;;4.00;;
15049;SDS011;7622;42.724;23.250;2023-08-17T11:31:19;6.15;;;4.00;;
15049;SDS011;7622;42.724;23.250;2023-08-17T11:33:45;7.05;;;4.20;;
15049;SDS011;7622;42.724;23.250;2023-08-17T11:36:12;5.88;;;3.72;;
15049;SDS011;7622;42.724;23.250;2023-08-17T11:38:40;4.28;;;3.70;;
15049;SDS011;7622;42.724;23.250;2023-08-17T11:41:08;5.65;;;4.13;;
15049;SDS011;7622;42.724;23.250;2023-08-17T11:43:36;7.35;;;3.92;;
15049;SDS011;7622;42.724;23.250;2023-08-17T11:46:04;4.53;;;4.10;;
15049;SDS011;7622;42.724;23.250;2023-08-17T11:48:32;6.15;;;3.90;;
15049;SDS011;7622;42.724;23.250;2023-08-17T11:50:59;5.22;;;3.60;;
15049;SDS011;7622;42.724;23.250;2023-08-17T11:53:32;9.25;;;4.40;;
15049;SDS011;7622;42.724;23.250;2023-08-17T11:55:59;6.38;;;3.88;;
15049;SDS011;7622;42.724;23.250;2023-08-17T11:58:35;5.38;;;4.13;;
15049;SDS011;7622;42.724;23.250;2023-08-17T12:01:03;15.13;;;4.53;;
15049;SDS011;7622;42.724;23.250;2023-08-17T12:03:39;4.85;;;4.45;;
15049;SDS011;7622;42.724;23.250;2023-08-17T12:06:06;3.75;;;3.45;;
15049;SDS011;7622;42.724;23.250;2023-08-17T12:08:33;5.68;;;4.35;;
15049;SDS011;7622;42.724;23.250;2023-08-17T12:11:00;5.25;;;4.38;;
15049;SDS011;7622;42.724;23.250;2023-08-17T12:13:34;3.88;;;3.53;;
15049;SDS011;7622;42.724;23.250;2023-08-17T12:16:02;6.78;;;4.20;;
15049;SDS011;7622;42.724;23.250;2023-08-17T12:18:31;4.30;;;3.88;;
15049;SDS011;7622;42.724;23.250;2023-08-17T12:21:00;5.93;;;4.03;;
15049;SDS011;7622;42.724;23.250;2023-08-17T12:23:27;6.15;;;4.00;;
15049;SDS011;7622;42.724;23.250;2023-08-17T12:25:54;4.82;;;4.10;;
15049;SDS011;7622;42.724;23.250;2023-08-17T12:28:22;7.25;;;4.50;;
15049;SDS011;7622;42.724;23.250;2023-08-17T12:30:56;7.05;;;4.43;;
15049;SDS011;7622;42.724;23.250;2023-08-17T12:33:24;7.78;;;3.83;;
15049;SDS011;7622;42.724;23.250;2023-08-17T12:35:51;6.18;;;4.40;;
15049;SDS011;7622;42.724;23.250;2023-08-17T12:38:20;7.97;;;4.00;;
15049;SDS011;7622;42.724;23.250;2023-08-17T12:40:46;4.30;;;3.90;;
15049;SDS011;7622;42.724;23.250;2023-08-17T12:43:13;5.85;;;4.40;;
15049;SDS011;7622;42.724;23.250;2023-08-17T12:45:40;5.15;;;3.92;;
15049;SDS011;7622;42.724;23.250;2023-08-17T12:48:07;5.80;;;4.32;;
15049;SDS011;7622;42.724;23.250;2023-08-17T12:50:33;4.63;;;4.00;;
15049;SDS011;7622;42.724;23.250;2023-08-17T12:53:00;4.30;;;4.00;;
15049;SDS011;7622;42.724;23.250;2023-08-17T12:55:28;7.55;;;4.13;;
15049;SDS011;7622;42.724;23.250;2023-08-17T12:57:55;4.35;;;3.90;;
15049;SDS011;7622;42.724;23.250;2023-08-17T13:00:22;7.38;;;4.32;;
15049;SDS011;7622;42.724;23.250;2023-08-17T13:02:49;7.95;;;4.22;;
15049;SDS011;7622;42.724;23.250;2023-08-17T13:05:16;5.82;;;4.00;;
15049;SDS011;7622;42.724;23.250;2023-08-17T13:07:43;20.65;;;5.03;;
15049;SDS011;7622;42.724;23.250;2023-08-17T13:10:10;4.55;;;3.47;;
15049;SDS011;7622;42.724;23.250;2023-08-17T13:12:38;4.18;;;3.88;;
15049;SDS011;7622;42.724;23.250;2023-08-17T13:15:05;9.68;;;4.32;;
15049;SDS011;7622;42.724;23.250;2023-08-17T13:17:32;5.43;;;4.07;;
15049;SDS011;7622;42.724;23.250;2023-08-17T13:20:00;4.72;;;4.22;;
15049;SDS011;7622;42.724;23.250;2023-08-17T13:22:28;4.03;;;3.75;;
15049;SDS011;7622;42.724;23.250;2023-08-17T13:24:55;4.25;;;3.90;;
15049;SDS011;7622;42.724;23.250;2023-08-17T13:27:22;3.83;;;3.58;;
15049;SDS011;7622;42.724;23.250;2023-08-17T13:29:50;3.92;;;3.63;;
15049;SDS011;7622;42.724;23.250;2023-08-17T13:32:17;3.60;;;3.30;;
15049;SDS011;7622;42.724;23.250;2023-08-17T13:34:44;7.60;;;4.35;;
15049;SDS011;7622;42.724;23.250;2023-08-17T13:37:11;5.10;;;3.88;;
15049;SDS011;7622;42.724;23.250;2023-08-17T13:39:37;4.38;;;3.60;;
15049;SDS011;7622;42.724;23.250;2023-08-17T13:42:04;4.40;;;3.83;;
15049;SDS011;7622;42.724;23.250;2023-08-17T13:44:31;28.17;;;4.88;;
15049;SDS011;7622;42.724;23.250;2023-08-17T13:46:59;3.90;;;3.60;;
15049;SDS011;7622;42.724;23.250;2023-08-17T13:49:26;4.40;;;4.00;;
15049;SDS011;7622;42.724;23.250;2023-08-17T13:51:53;3.45;;;3.25;;
15049;SDS011;7622;42.724;23.250;2023-08-17T13:54:21;5.47;;;3.55;;
15049;SDS011;7622;42.724;23.250;2023-08-17T13:56:48;3.70;;;3.35;;
15049;SDS011;7622;42.724;23.250;2023-08-17T13:59:15;5.32;;;3.70;;
15049;SDS011;7622;42.724;23.250;2023-08-17T14:01:41;6.15;;;3.97;;
15049;SDS011;7622;42.724;23.250;2023-08-17T14:04:10;3.67;;;3.20;;
15049;SDS011;7622;42.724;23.250;2023-08-17T14:06:37;5.65;;;3.63;;
15049;SDS011;7622;42.724;23.250;2023-08-17T14:09:05;3.75;;;3.45;;
15049;SDS011;7622;42.724;23.250;2023-08-17T14:11:32;4.45;;;3.50;;
15049;SDS011;7622;42.724;23.250;2023-08-17T14:13:59;3.95;;;3.20;;
15049;SDS011;7622;42.724;23.250;2023-08-17T14:16:26;7.28;;;3.78;;
15049;SDS011;7622;42.724;23.250;2023-08-17T14:18:53;16.20;;;4.35;;
15049;SDS011;7622;42.724;23.250;2023-08-17T14:21:21;8.77;;;3.97;;
15049;SDS011;7622;42.724;23.250;2023-08-17T14:23:48;4.75;;;3.45;;
15049;SDS011;7622;42.724;23.250;2023-08-17T14:26:15;4.50;;;3.22;;
15049;SDS011;7622;42.724;23.250;2023-08-17T14:28:42;4.07;;;3.22;;
15049;SDS011;7622;42.724;23.250;2023-08-17T14:31:09;5.10;;;3.22;;
15049;SDS011;7622;42.724;23.250;2023-08-17T14:33:37;3.40;;;3.17;;
15049;SDS011;7622;42.724;23.250;2023-08-17T14:36:03;4.72;;;3.35;;
15049;SDS011;7622;42.724;23.250;2023-08-17T14:38:32;3.70;;;3.40;;
15049;SDS011;7622;42.724;23.250;2023-08-17T14:41:00;6.78;;;3.30;;
15049;SDS011;7622;42.724;23.250;2023-08-17T14:43:29;4.43;;;3.17;;
15049;SDS011;7622;42.724;23.250;2023-08-17T14:45:56;5.15;;;3.25;;
15049;SDS011;7622;42.724;23.250;2023-08-17T14:48:23;5.55;;;3.15;;